Terminal Aerodrome Forecast
Issued by NWS Grand Rapids, MI

Home | Current Version | Previous Version | Text Only | Print | Product List | Glossary On
Versions: 1 2 3 4 5 6 7 8 9 10 11 12 13 14 15 16 17 18 19 20 21 22 23 24 25
712
FTUS43 KGRR 092340
TAFGRR
TAF
KGRR 092340Z 1000/1024 28008KT 2SM -SN BKN028 OVC060
     FM100100 29009KT 3SM -SN BR OVC025
      TEMPO 1001/1004 1SM -SN BR OVC012
     FM100400 29008KT 2SM -SN BR OVC025
     FM100700 29008KT 5SM -SN BR OVC018
     FM101200 29008KT 1 1/2SM -SN BR VV009
     FM101800 27008KT 6SM -SN OVC025=

USA.gov is the U.S. government's official web portal to all federal, state and local government web resources and services.